sensor_id;sensor_type;location;lat;lon;timestamp;P1;durP1;ratioP1;P2;durP2;ratioP2
26718;SDS011;14326;50.794;6.060;2022-08-19T00:00:50;24.60;;;14.98;;
26718;SDS011;14326;50.794;6.060;2022-08-19T00:03:17;28.00;;;14.05;;
26718;SDS011;14326;50.794;6.060;2022-08-19T00:05:43;24.95;;;14.50;;
26718;SDS011;14326;50.794;6.060;2022-08-19T00:08:10;23.55;;;14.07;;
26718;SDS011;14326;50.794;6.060;2022-08-19T00:10:38;23.98;;;14.50;;
26718;SDS011;14326;50.794;6.060;2022-08-19T00:13:05;25.25;;;14.60;;
26718;SDS011;14326;50.794;6.060;2022-08-19T00:15:31;25.50;;;15.75;;
26718;SDS011;14326;50.794;6.060;2022-08-19T00:17:58;24.85;;;16.02;;
26718;SDS011;14326;50.794;6.060;2022-08-19T00:20:25;25.77;;;15.30;;
26718;SDS011;14326;50.794;6.060;2022-08-19T00:22:52;29.02;;;16.05;;
26718;SDS011;14326;50.794;6.060;2022-08-19T00:25:20;27.83;;;16.95;;
26718;SDS011;14326;50.794;6.060;2022-08-19T00:27:48;28.45;;;17.23;;
26718;SDS011;14326;50.794;6.060;2022-08-19T00:30:15;25.77;;;15.75;;
26718;SDS011;14326;50.794;6.060;2022-08-19T00:32:42;28.02;;;16.48;;
26718;SDS011;14326;50.794;6.060;2022-08-19T00:35:09;28.92;;;15.85;;
26718;SDS011;14326;50.794;6.060;2022-08-19T00:37:36;29.30;;;16.45;;
26718;SDS011;14326;50.794;6.060;2022-08-19T00:40:04;26.45;;;16.17;;
26718;SDS011;14326;50.794;6.060;2022-08-19T00:42:32;27.90;;;16.50;;
26718;SDS011;14326;50.794;6.060;2022-08-19T00:45:00;27.23;;;15.80;;
26718;SDS011;14326;50.794;6.060;2022-08-19T00:47:26;27.45;;;15.57;;
26718;SDS011;14326;50.794;6.060;2022-08-19T00:49:54;25.55;;;15.48;;
26718;SDS011;14326;50.794;6.060;2022-08-19T00:52:23;25.70;;;16.20;;
26718;SDS011;14326;50.794;6.060;2022-08-19T00:54:54;28.52;;;16.50;;
26718;SDS011;14326;50.794;6.060;2022-08-19T00:57:22;27.33;;;16.45;;
26718;SDS011;14326;50.794;6.060;2022-08-19T00:59:54;29.10;;;17.15;;
26718;SDS011;14326;50.794;6.060;2022-08-19T01:02:23;24.83;;;15.45;;
26718;SDS011;14326;50.794;6.060;2022-08-19T01:04:50;26.55;;;15.73;;
26718;SDS011;14326;50.794;6.060;2022-08-19T01:07:17;26.55;;;16.25;;
26718;SDS011;14326;50.794;6.060;2022-08-19T01:09:44;24.05;;;15.18;;
26718;SDS011;14326;50.794;6.060;2022-08-19T01:12:10;24.98;;;15.35;;
26718;SDS011;14326;50.794;6.060;2022-08-19T01:14:37;24.42;;;15.45;;
26718;SDS011;14326;50.794;6.060;2022-08-19T01:17:05;24.58;;;14.55;;
26718;SDS011;14326;50.794;6.060;2022-08-19T01:19:35;26.48;;;15.73;;
26718;SDS011;14326;50.794;6.060;2022-08-19T01:22:06;28.73;;;16.30;;
26718;SDS011;14326;50.794;6.060;2022-08-19T01:24:39;31.23;;;16.20;;
26718;SDS011;14326;50.794;6.060;2022-08-19T01:27:07;27.77;;;16.50;;
26718;SDS011;14326;50.794;6.060;2022-08-19T01:29:34;31.15;;;17.75;;
26718;SDS011;14326;50.794;6.060;2022-08-19T01:32:03;27.42;;;17.08;;
26718;SDS011;14326;50.794;6.060;2022-08-19T01:34:31;27.05;;;16.50;;
26718;SDS011;14326;50.794;6.060;2022-08-19T01:36:59;28.77;;;17.17;;
26718;SDS011;14326;50.794;6.060;2022-08-19T01:39:27;30.10;;;18.00;;
26718;SDS011;14326;50.794;6.060;2022-08-19T01:41:55;28.23;;;18.42;;
26718;SDS011;14326;50.794;6.060;2022-08-19T01:44:22;27.55;;;17.58;;
26718;SDS011;14326;50.794;6.060;2022-08-19T01:46:50;28.55;;;17.85;;
26718;SDS011;14326;50.794;6.060;2022-08-19T01:49:19;29.05;;;18.27;;
26718;SDS011;14326;50.794;6.060;2022-08-19T01:51:48;30.20;;;18.42;;
26718;SDS011;14326;50.794;6.060;2022-08-19T01:54:16;28.65;;;18.23;;
26718;SDS011;14326;50.794;6.060;2022-08-19T01:56:43;30.95;;;19.15;;
26718;SDS011;14326;50.794;6.060;2022-08-19T01:59:14;30.40;;;19.08;;
26718;SDS011;14326;50.794;6.060;2022-08-19T02:01:43;30.38;;;19.80;;
26718;SDS011;14326;50.794;6.060;2022-08-19T02:04:10;29.45;;;19.00;;
26718;SDS011;14326;50.794;6.060;2022-08-19T02:06:37;31.92;;;19.90;;
26718;SDS011;14326;50.794;6.060;2022-08-19T02:09:07;29.38;;;18.45;;
26718;SDS011;14326;50.794;6.060;2022-08-19T02:11:35;31.08;;;19.65;;
26718;SDS011;14326;50.794;6.060;2022-08-19T02:14:05;31.42;;;19.77;;
26718;SDS011;14326;50.794;6.060;2022-08-19T02:16:34;31.58;;;21.08;;
26718;SDS011;14326;50.794;6.060;2022-08-19T02:19:02;36.70;;;19.77;;
26718;SDS011;14326;50.794;6.060;2022-08-19T02:21:29;32.13;;;20.63;;
26718;SDS011;14326;50.794;6.060;2022-08-19T02:23:56;34.60;;;22.60;;
26718;SDS011;14326;50.794;6.060;2022-08-19T02:26:23;37.55;;;25.33;;
26718;SDS011;14326;50.794;6.060;2022-08-19T02:28:51;40.90;;;25.10;;
26718;SDS011;14326;50.794;6.060;2022-08-19T02:31:20;36.13;;;22.48;;
26718;SDS011;14326;50.794;6.060;2022-08-19T02:33:49;34.80;;;22.13;;
26718;SDS011;14326;50.794;6.060;2022-08-19T02:36:17;37.95;;;21.67;;
26718;SDS011;14326;50.794;6.060;2022-08-19T02:38:44;33.95;;;20.98;;
26718;SDS011;14326;50.794;6.060;2022-08-19T02:41:11;38.53;;;23.85;;
26718;SDS011;14326;50.794;6.060;2022-08-19T02:43:42;35.33;;;23.00;;
26718;SDS011;14326;50.794;6.060;2022-08-19T02:46:17;36.67;;;22.55;;
26718;SDS011;14326;50.794;6.060;2022-08-19T02:48:46;36.10;;;23.35;;
26718;SDS011;14326;50.794;6.060;2022-08-19T02:51:19;37.08;;;22.77;;
26718;SDS011;14326;50.794;6.060;2022-08-19T02:53:48;36.95;;;23.55;;
26718;SDS011;14326;50.794;6.060;2022-08-19T02:56:15;37.92;;;22.98;;
26718;SDS011;14326;50.794;6.060;2022-08-19T02:58:42;39.28;;;23.05;;
26718;SDS011;14326;50.794;6.060;2022-08-19T03:01:09;37.67;;;24.73;;
26718;SDS011;14326;50.794;6.060;2022-08-19T03:03:37;38.38;;;24.33;;
26718;SDS011;14326;50.794;6.060;2022-08-19T03:06:05;37.25;;;23.40;;
26718;SDS011;14326;50.794;6.060;2022-08-19T03:08:36;36.83;;;23.90;;
26718;SDS011;14326;50.794;6.060;2022-08-19T03:11:03;36.50;;;23.38;;
26718;SDS011;14326;50.794;6.060;2022-08-19T03:13:30;42.17;;;24.60;;
26718;SDS011;14326;50.794;6.060;2022-08-19T03:15:57;37.92;;;24.33;;
26718;SDS011;14326;50.794;6.060;2022-08-19T03:18:24;46.47;;;30.20;;
26718;SDS011;14326;50.794;6.060;2022-08-19T03:20:51;45.75;;;29.85;;
26718;SDS011;14326;50.794;6.060;2022-08-19T03:23:19;45.95;;;30.42;;
26718;SDS011;14326;50.794;6.060;2022-08-19T03:25:48;47.97;;;32.22;;
26718;SDS011;14326;50.794;6.060;2022-08-19T03:28:18;54.85;;;35.88;;
26718;SDS011;14326;50.794;6.060;2022-08-19T03:30:54;57.17;;;34.90;;
26718;SDS011;14326;50.794;6.060;2022-08-19T03:33:27;52.05;;;34.40;;
26718;SDS011;14326;50.794;6.060;2022-08-19T03:36:01;51.17;;;34.28;;
26718;SDS011;14326;50.794;6.060;2022-08-19T03:38:30;59.38;;;38.47;;
26718;SDS011;14326;50.794;6.060;2022-08-19T03:41:01;58.45;;;38.22;;
26718;SDS011;14326;50.794;6.060;2022-08-19T03:43:31;61.42;;;40.60;;
26718;SDS011;14326;50.794;6.060;2022-08-19T03:46:02;67.18;;;40.60;;
26718;SDS011;14326;50.794;6.060;2022-08-19T03:48:31;65.82;;;41.38;;
26718;SDS011;14326;50.794;6.060;2022-08-19T03:50:58;64.85;;;40.38;;
26718;SDS011;14326;50.794;6.060;2022-08-19T03:53:25;63.47;;;40.70;;
26718;SDS011;14326;50.794;6.060;2022-08-19T03:55:53;62.53;;;40.00;;
26718;SDS011;14326;50.794;6.060;2022-08-19T03:58:22;66.45;;;39.60;;
26718;SDS011;14326;50.794;6.060;2022-08-19T04:00:49;60.28;;;39.50;;
26718;SDS011;14326;50.794;6.060;2022-08-19T04:03:15;58.72;;;38.08;;
26718;SDS011;14326;50.794;6.060;2022-08-19T04:05:44;61.50;;;38.28;;
26718;SDS011;14326;50.794;6.060;2022-08-19T04:08:11;65.10;;;38.60;;
26718;SDS011;14326;50.794;6.060;2022-08-19T04:10:37;62.15;;;38.65;;
26718;SDS011;14326;50.794;6.060;2022-08-19T04:13:05;66.30;;;38.90;;
26718;SDS011;14326;50.794;6.060;2022-08-19T04:15:38;65.70;;;41.08;;
26718;SDS011;14326;50.794;6.060;2022-08-19T04:18:06;68.70;;;38.97;;
26718;SDS011;14326;50.794;6.060;2022-08-19T04:20:38;64.35;;;39.65;;
26718;SDS011;14326;50.794;6.060;2022-08-19T04:23:06;62.83;;;39.45;;
26718;SDS011;14326;50.794;6.060;2022-08-19T04:25:37;69.00;;;41.42;;
26718;SDS011;14326;50.794;6.060;2022-08-19T04:28:05;70.53;;;40.65;;
26718;SDS011;14326;50.794;6.060;2022-08-19T04:30:38;67.82;;;41.33;;
26718;SDS011;14326;50.794;6.060;2022-08-19T04:33:06;71.80;;;40.67;;
26718;SDS011;14326;50.794;6.060;2022-08-19T04:35:37;65.18;;;39.60;;
26718;SDS011;14326;50.794;6.060;2022-08-19T04:38:04;69.63;;;41.90;;
26718;SDS011;14326;50.794;6.060;2022-08-19T04:40:31;73.63;;;41.63;;
26718;SDS011;14326;50.794;6.060;2022-08-19T04:43:16;69.28;;;40.80;;
26718;SDS011;14326;50.794;6.060;2022-08-19T04:45:44;73.78;;;41.13;;
26718;SDS011;14326;50.794;6.060;2022-08-19T04:48:11;73.38;;;40.88;;
26718;SDS011;14326;50.794;6.060;2022-08-19T04:50:40;70.47;;;40.85;;
26718;SDS011;14326;50.794;6.060;2022-08-19T04:53:07;75.68;;;41.83;;
26718;SDS011;14326;50.794;6.060;2022-08-19T04:55:38;73.63;;;42.00;;
26718;SDS011;14326;50.794;6.060;2022-08-19T04:58:05;78.47;;;44.10;;
26718;SDS011;14326;50.794;6.060;2022-08-19T05:00:32;75.53;;;41.40;;
26718;SDS011;14326;50.794;6.060;2022-08-19T05:03:00;73.38;;;41.67;;
26718;SDS011;14326;50.794;6.060;2022-08-19T05:05:27;78.15;;;42.50;;
26718;SDS011;14326;50.794;6.060;2022-08-19T05:07:57;57.72;;;31.67;;
26718;SDS011;14326;50.794;6.060;2022-08-19T05:10:23;75.28;;;40.65;;
26718;SDS011;14326;50.794;6.060;2022-08-19T05:12:50;81.95;;;43.42;;
26718;SDS011;14326;50.794;6.060;2022-08-19T05:15:17;80.47;;;43.53;;
26718;SDS011;14326;50.794;6.060;2022-08-19T05:17:44;78.80;;;43.65;;
26718;SDS011;14326;50.794;6.060;2022-08-19T05:20:32;80.30;;;43.22;;
26718;SDS011;14326;50.794;6.060;2022-08-19T05:23:16;75.28;;;42.47;;
26718;SDS011;14326;50.794;6.060;2022-08-19T05:25:42;78.30;;;42.13;;
26718;SDS011;14326;50.794;6.060;2022-08-19T05:28:09;71.75;;;40.08;;
26718;SDS011;14326;50.794;6.060;2022-08-19T05:30:36;76.50;;;40.25;;
26718;SDS011;14326;50.794;6.060;2022-08-19T05:33:03;75.15;;;39.83;;
26718;SDS011;14326;50.794;6.060;2022-08-19T05:35:29;76.20;;;40.60;;
26718;SDS011;14326;50.794;6.060;2022-08-19T05:37:57;75.05;;;41.00;;
26718;SDS011;14326;50.794;6.060;2022-08-19T05:40:24;75.78;;;40.80;;
26718;SDS011;14326;50.794;6.060;2022-08-19T05:42:50;71.13;;;38.78;;
26718;SDS011;14326;50.794;6.060;2022-08-19T05:45:18;74.82;;;40.88;;
26718;SDS011;14326;50.794;6.060;2022-08-19T05:47:46;71.43;;;39.60;;
26718;SDS011;14326;50.794;6.060;2022-08-19T05:50:12;72.28;;;40.03;;
26718;SDS011;14326;50.794;6.060;2022-08-19T05:52:39;67.63;;;39.13;;
26718;SDS011;14326;50.794;6.060;2022-08-19T05:55:08;70.70;;;39.33;;
26718;SDS011;14326;50.794;6.060;2022-08-19T05:57:35;65.95;;;38.03;;
26718;SDS011;14326;50.794;6.060;2022-08-19T06:00:02;64.07;;;36.08;;
26718;SDS011;14326;50.794;6.060;2022-08-19T06:02:33;56.85;;;33.67;;
26718;SDS011;14326;50.794;6.060;2022-08-19T06:05:00;51.28;;;30.98;;
26718;SDS011;14326;50.794;6.060;2022-08-19T06:07:27;49.53;;;29.17;;
26718;SDS011;14326;50.794;6.060;2022-08-19T06:09:54;48.33;;;26.73;;
26718;SDS011;14326;50.794;6.060;2022-08-19T06:12:22;48.45;;;28.52;;
26718;SDS011;14326;50.794;6.060;2022-08-19T06:14:53;49.97;;;28.45;;
26718;SDS011;14326;50.794;6.060;2022-08-19T06:17:20;45.35;;;25.77;;
26718;SDS011;14326;50.794;6.060;2022-08-19T06:22:17;48.60;;;28.15;;
26718;SDS011;14326;50.794;6.060;2022-08-19T06:24:44;46.13;;;27.38;;
26718;SDS011;14326;50.794;6.060;2022-08-19T06:27:10;48.92;;;27.92;;
26718;SDS011;14326;50.794;6.060;2022-08-19T06:29:38;48.83;;;27.60;;
26718;SDS011;14326;50.794;6.060;2022-08-19T06:32:05;42.88;;;25.67;;
26718;SDS011;14326;50.794;6.060;2022-08-19T06:34:32;46.63;;;24.08;;
26718;SDS011;14326;50.794;6.060;2022-08-19T06:37:00;47.47;;;25.70;;
26718;SDS011;14326;50.794;6.060;2022-08-19T06:39:28;42.10;;;24.45;;
26718;SDS011;14326;50.794;6.060;2022-08-19T06:41:56;42.05;;;24.50;;
26718;SDS011;14326;50.794;6.060;2022-08-19T06:44:26;43.10;;;24.10;;
26718;SDS011;14326;50.794;6.060;2022-08-19T06:46:55;44.80;;;23.65;;
26718;SDS011;14326;50.794;6.060;2022-08-19T06:49:22;44.47;;;24.90;;
26718;SDS011;14326;50.794;6.060;2022-08-19T06:51:51;39.95;;;23.10;;
26718;SDS011;14326;50.794;6.060;2022-08-19T06:54:18;41.78;;;23.25;;
26718;SDS011;14326;50.794;6.060;2022-08-19T06:56:45;42.50;;;24.42;;
26718;SDS011;14326;50.794;6.060;2022-08-19T06:59:12;45.65;;;25.50;;
26718;SDS011;14326;50.794;6.060;2022-08-19T07:01:41;46.22;;;26.58;;
26718;SDS011;14326;50.794;6.060;2022-08-19T07:04:14;44.38;;;25.58;;
26718;SDS011;14326;50.794;6.060;2022-08-19T07:06:42;46.00;;;25.88;;
26718;SDS011;14326;50.794;6.060;2022-08-19T07:09:10;47.67;;;26.88;;
26718;SDS011;14326;50.794;6.060;2022-08-19T07:11:38;48.58;;;28.85;;
26718;SDS011;14326;50.794;6.060;2022-08-19T07:14:04;52.20;;;29.90;;
26718;SDS011;14326;50.794;6.060;2022-08-19T07:16:31;55.65;;;31.98;;
26718;SDS011;14326;50.794;6.060;2022-08-19T07:18:58;53.10;;;31.50;;
26718;SDS011;14326;50.794;6.060;2022-08-19T07:21:29;55.50;;;31.58;;
26718;SDS011;14326;50.794;6.060;2022-08-19T07:23:56;57.78;;;34.25;;
26718;SDS011;14326;50.794;6.060;2022-08-19T07:26:25;56.53;;;33.20;;
26718;SDS011;14326;50.794;6.060;2022-08-19T07:28:53;56.25;;;33.35;;
26718;SDS011;14326;50.794;6.060;2022-08-19T07:31:23;57.08;;;34.47;;
26718;SDS011;14326;50.794;6.060;2022-08-19T07:33:52;57.75;;;33.65;;
26718;SDS011;14326;50.794;6.060;2022-08-19T07:36:22;57.20;;;32.47;;
26718;SDS011;14326;50.794;6.060;2022-08-19T07:38:52;51.70;;;31.60;;
26718;SDS011;14326;50.794;6.060;2022-08-19T07:41:20;53.40;;;30.58;;
26718;SDS011;14326;50.794;6.060;2022-08-19T07:43:50;50.15;;;30.42;;
26718;SDS011;14326;50.794;6.060;2022-08-19T07:46:18;51.53;;;30.73;;
26718;SDS011;14326;50.794;6.060;2022-08-19T07:48:47;51.42;;;31.02;;
26718;SDS011;14326;50.794;6.060;2022-08-19T07:51:16;53.03;;;29.95;;
26718;SDS011;14326;50.794;6.060;2022-08-19T07:53:45;49.65;;;27.63;;
26718;SDS011;14326;50.794;6.060;2022-08-19T07:56:14;48.40;;;28.23;;
26718;SDS011;14326;50.794;6.060;2022-08-19T07:58:41;46.40;;;27.52;;
26718;SDS011;14326;50.794;6.060;2022-08-19T08:01:10;47.95;;;29.63;;
26718;SDS011;14326;50.794;6.060;2022-08-19T08:03:37;50.75;;;30.27;;
26718;SDS011;14326;50.794;6.060;2022-08-19T08:06:22;47.42;;;28.50;;
26718;SDS011;14326;50.794;6.060;2022-08-19T08:09:07;49.80;;;29.23;;
26718;SDS011;14326;50.794;6.060;2022-08-19T08:11:44;47.60;;;28.40;;
26718;SDS011;14326;50.794;6.060;2022-08-19T08:14:14;47.53;;;29.60;;
26718;SDS011;14326;50.794;6.060;2022-08-19T08:16:41;48.72;;;27.63;;
26718;SDS011;14326;50.794;6.060;2022-08-19T08:19:09;48.97;;;28.10;;
26718;SDS011;14326;50.794;6.060;2022-08-19T08:21:35;48.10;;;29.05;;
26718;SDS011;14326;50.794;6.060;2022-08-19T08:24:02;48.05;;;30.10;;
26718;SDS011;14326;50.794;6.060;2022-08-19T08:26:29;50.20;;;30.30;;
26718;SDS011;14326;50.794;6.060;2022-08-19T08:28:57;50.20;;;31.30;;
26718;SDS011;14326;50.794;6.060;2022-08-19T08:31:24;51.95;;;29.58;;
26718;SDS011;14326;50.794;6.060;2022-08-19T08:33:50;48.83;;;31.55;;
26718;SDS011;14326;50.794;6.060;2022-08-19T08:36:17;54.60;;;32.97;;
26718;SDS011;14326;50.794;6.060;2022-08-19T08:38:44;49.75;;;30.50;;
26718;SDS011;14326;50.794;6.060;2022-08-19T08:41:13;49.45;;;31.15;;
26718;SDS011;14326;50.794;6.060;2022-08-19T08:43:49;45.00;;;28.27;;
26718;SDS011;14326;50.794;6.060;2022-08-19T08:46:20;44.58;;;27.73;;
26718;SDS011;14326;50.794;6.060;2022-08-19T08:48:52;41.88;;;26.08;;
26718;SDS011;14326;50.794;6.060;2022-08-19T08:51:22;46.08;;;29.85;;
26718;SDS011;14326;50.794;6.060;2022-08-19T08:53:52;51.05;;;30.95;;
26718;SDS011;14326;50.794;6.060;2022-08-19T08:56:21;47.60;;;30.35;;
26718;SDS011;14326;50.794;6.060;2022-08-19T08:58:51;47.10;;;30.67;;
26718;SDS011;14326;50.794;6.060;2022-08-19T09:01:25;52.58;;;32.60;;
26718;SDS011;14326;50.794;6.060;2022-08-19T09:03:52;53.35;;;33.47;;
26718;SDS011;14326;50.794;6.060;2022-08-19T09:06:21;49.50;;;30.70;;
26718;SDS011;14326;50.794;6.060;2022-08-19T09:08:57;49.83;;;31.00;;
26718;SDS011;14326;50.794;6.060;2022-08-19T09:11:33;48.53;;;30.83;;
26718;SDS011;14326;50.794;6.060;2022-08-19T09:14:14;52.45;;;31.30;;
26718;SDS011;14326;50.794;6.060;2022-08-19T09:17:00;47.55;;;30.83;;
26718;SDS011;14326;50.794;6.060;2022-08-19T09:19:28;47.07;;;30.93;;
26718;SDS011;14326;50.794;6.060;2022-08-19T09:21:55;48.33;;;28.80;;
26718;SDS011;14326;50.794;6.060;2022-08-19T09:24:25;51.10;;;30.23;;
26718;SDS011;14326;50.794;6.060;2022-08-19T09:26:51;49.30;;;30.45;;
26718;SDS011;14326;50.794;6.060;2022-08-19T09:29:19;49.80;;;29.30;;
26718;SDS011;14326;50.794;6.060;2022-08-19T09:31:46;46.05;;;28.52;;
26718;SDS011;14326;50.794;6.060;2022-08-19T09:34:14;45.20;;;28.45;;
26718;SDS011;14326;50.794;6.060;2022-08-19T09:36:41;51.30;;;28.13;;
26718;SDS011;14326;50.794;6.060;2022-08-19T09:39:07;44.03;;;27.30;;
26718;SDS011;14326;50.794;6.060;2022-08-19T09:41:34;50.08;;;29.55;;
26718;SDS011;14326;50.794;6.060;2022-08-19T09:44:01;46.65;;;27.13;;
26718;SDS011;14326;50.794;6.060;2022-08-19T09:46:28;46.10;;;25.40;;
26718;SDS011;14326;50.794;6.060;2022-08-19T09:48:57;44.95;;;26.00;;
26718;SDS011;14326;50.794;6.060;2022-08-19T09:51:26;49.10;;;27.27;;
26718;SDS011;14326;50.794;6.060;2022-08-19T09:53:54;51.87;;;29.43;;
26718;SDS011;14326;50.794;6.060;2022-08-19T09:56:24;44.60;;;26.95;;
26718;SDS011;14326;50.794;6.060;2022-08-19T09:58:51;43.95;;;25.58;;
26718;SDS011;14326;50.794;6.060;2022-08-19T10:01:19;45.28;;;26.65;;
26718;SDS011;14326;50.794;6.060;2022-08-19T10:03:48;34.30;;;18.90;;
26718;SDS011;14326;50.794;6.060;2022-08-19T10:06:16;44.80;;;25.63;;
26718;SDS011;14326;50.794;6.060;2022-08-19T10:08:45;44.70;;;25.80;;
26718;SDS011;14326;50.794;6.060;2022-08-19T10:11:12;40.88;;;24.92;;
26718;SDS011;14326;50.794;6.060;2022-08-19T10:13:41;46.70;;;26.20;;
26718;SDS011;14326;50.794;6.060;2022-08-19T10:16:10;41.03;;;24.13;;
26718;SDS011;14326;50.794;6.060;2022-08-19T10:18:38;40.42;;;23.77;;
26718;SDS011;14326;50.794;6.060;2022-08-19T10:21:08;40.88;;;22.80;;
26718;SDS011;14326;50.794;6.060;2022-08-19T10:23:37;41.55;;;25.42;;
26718;SDS011;14326;50.794;6.060;2022-08-19T10:26:06;40.22;;;24.42;;
26718;SDS011;14326;50.794;6.060;2022-08-19T10:28:33;43.38;;;25.00;;
26718;SDS011;14326;50.794;6.060;2022-08-19T10:31:05;40.83;;;24.30;;
26718;SDS011;14326;50.794;6.060;2022-08-19T10:33:34;37.13;;;20.88;;
26718;SDS011;14326;50.794;6.060;2022-08-19T10:36:01;36.80;;;21.55;;
26718;SDS011;14326;50.794;6.060;2022-08-19T10:38:29;38.75;;;21.95;;
26718;SDS011;14326;50.794;6.060;2022-08-19T10:40:56;36.92;;;22.35;;
26718;SDS011;14326;50.794;6.060;2022-08-19T10:43:25;38.70;;;21.38;;
26718;SDS011;14326;50.794;6.060;2022-08-19T10:45:52;36.97;;;21.70;;
26718;SDS011;14326;50.794;6.060;2022-08-19T10:48:21;40.67;;;21.42;;
26718;SDS011;14326;50.794;6.060;2022-08-19T10:50:48;33.67;;;19.25;;
26718;SDS011;14326;50.794;6.060;2022-08-19T10:53:32;37.88;;;20.83;;
26718;SDS011;14326;50.794;6.060;2022-08-19T10:55:58;35.00;;;20.00;;
26718;SDS011;14326;50.794;6.060;2022-08-19T10:58:44;36.25;;;21.15;;
26718;SDS011;14326;50.794;6.060;2022-08-19T11:01:11;35.25;;;19.13;;
26718;SDS011;14326;50.794;6.060;2022-08-19T11:03:37;33.95;;;18.13;;
26718;SDS011;14326;50.794;6.060;2022-08-19T11:06:05;36.95;;;18.73;;
26718;SDS011;14326;50.794;6.060;2022-08-19T11:08:33;38.45;;;21.77;;
26718;SDS011;14326;50.794;6.060;2022-08-19T11:11:03;35.72;;;20.95;;
26718;SDS011;14326;50.794;6.060;2022-08-19T11:13:36;36.50;;;19.93;;
26718;SDS011;14326;50.794;6.060;2022-08-19T11:16:07;36.72;;;20.70;;
26718;SDS011;14326;50.794;6.060;2022-08-19T11:18:36;38.80;;;23.13;;
26718;SDS011;14326;50.794;6.060;2022-08-19T11:21:07;38.70;;;20.73;;
26718;SDS011;14326;50.794;6.060;2022-08-19T11:26:02;36.72;;;21.20;;
26718;SDS011;14326;50.794;6.060;2022-08-19T11:28:29;33.97;;;19.10;;
26718;SDS011;14326;50.794;6.060;2022-08-19T11:30:56;31.73;;;18.83;;
26718;SDS011;14326;50.794;6.060;2022-08-19T11:33:24;35.85;;;20.90;;
26718;SDS011;14326;50.794;6.060;2022-08-19T11:35:51;37.00;;;19.27;;
26718;SDS011;14326;50.794;6.060;2022-08-19T11:38:19;32.97;;;20.30;;
26718;SDS011;14326;50.794;6.060;2022-08-19T11:40:53;31.02;;;16.55;;
26718;SDS011;14326;50.794;6.060;2022-08-19T11:43:20;32.55;;;16.88;;
26718;SDS011;14326;50.794;6.060;2022-08-19T11:45:47;32.28;;;16.30;;
26718;SDS011;14326;50.794;6.060;2022-08-19T11:48:14;32.33;;;17.27;;
26718;SDS011;14326;50.794;6.060;2022-08-19T11:50:42;28.75;;;16.50;;
26718;SDS011;14326;50.794;6.060;2022-08-19T11:53:08;30.67;;;16.65;;
26718;SDS011;14326;50.794;6.060;2022-08-19T11:55:36;29.55;;;15.98;;
26718;SDS011;14326;50.794;6.060;2022-08-19T11:58:04;32.35;;;16.52;;
26718;SDS011;14326;50.794;6.060;2022-08-19T12:00:31;29.27;;;16.35;;
26718;SDS011;14326;50.794;6.060;2022-08-19T12:02:59;25.17;;;13.40;;
26718;SDS011;14326;50.794;6.060;2022-08-19T12:05:25;24.60;;;11.73;;
26718;SDS011;14326;50.794;6.060;2022-08-19T12:07:53;21.95;;;9.85;;
26718;SDS011;14326;50.794;6.060;2022-08-19T12:10:21;24.90;;;10.48;;
26718;SDS011;14326;50.794;6.060;2022-08-19T12:12:48;21.80;;;9.18;;
26718;SDS011;14326;50.794;6.060;2022-08-19T12:15:15;24.23;;;9.93;;
26718;SDS011;14326;50.794;6.060;2022-08-19T12:17:42;20.85;;;9.10;;
26718;SDS011;14326;50.794;6.060;2022-08-19T12:20:09;21.45;;;9.45;;
26718;SDS011;14326;50.794;6.060;2022-08-19T12:22:38;19.27;;;8.70;;
26718;SDS011;14326;50.794;6.060;2022-08-19T12:25:08;20.73;;;7.50;;
26718;SDS011;14326;50.794;6.060;2022-08-19T12:27:35;17.15;;;6.30;;
26718;SDS011;14326;50.794;6.060;2022-08-19T12:30:02;16.13;;;5.60;;
26718;SDS011;14326;50.794;6.060;2022-08-19T12:32:29;15.30;;;6.00;;
26718;SDS011;14326;50.794;6.060;2022-08-19T12:34:56;17.83;;;6.03;;
26718;SDS011;14326;50.794;6.060;2022-08-19T12:37:23;15.55;;;4.80;;
26718;SDS011;14326;50.794;6.060;2022-08-19T12:39:49;15.15;;;4.88;;
26718;SDS011;14326;50.794;6.060;2022-08-19T12:42:17;14.20;;;4.72;;
26718;SDS011;14326;50.794;6.060;2022-08-19T12:44:47;13.48;;;4.47;;
26718;SDS011;14326;50.794;6.060;2022-08-19T12:47:13;16.33;;;4.70;;
26718;SDS011;14326;50.794;6.060;2022-08-19T12:49:40;14.52;;;4.07;;
26718;SDS011;14326;50.794;6.060;2022-08-19T12:52:08;12.88;;;4.82;;
26718;SDS011;14326;50.794;6.060;2022-08-19T12:54:36;15.55;;;5.47;;
26718;SDS011;14326;50.794;6.060;2022-08-19T12:57:04;12.15;;;4.25;;
26718;SDS011;14326;50.794;6.060;2022-08-19T12:59:34;14.80;;;4.20;;
26718;SDS011;14326;50.794;6.060;2022-08-19T13:02:01;11.52;;;3.63;;
26718;SDS011;14326;50.794;6.060;2022-08-19T13:04:30;8.85;;;3.35;;
26718;SDS011;14326;50.794;6.060;2022-08-19T13:06:56;11.48;;;3.63;;
26718;SDS011;14326;50.794;6.060;2022-08-19T13:09:24;11.25;;;3.38;;
26718;SDS011;14326;50.794;6.060;2022-08-19T13:11:50;12.05;;;3.70;;
26718;SDS011;14326;50.794;6.060;2022-08-19T13:14:17;9.32;;;3.35;;
26718;SDS011;14326;50.794;6.060;2022-08-19T13:16:45;12.88;;;3.40;;
26718;SDS011;14326;50.794;6.060;2022-08-19T13:19:12;11.05;;;2.88;;
26718;SDS011;14326;50.794;6.060;2022-08-19T13:21:38;7.53;;;3.10;;
26718;SDS011;14326;50.794;6.060;2022-08-19T13:24:05;9.13;;;2.63;;
26718;SDS011;14326;50.794;6.060;2022-08-19T13:26:32;10.45;;;3.00;;
26718;SDS011;14326;50.794;6.060;2022-08-19T13:28:58;10.50;;;2.90;;
26718;SDS011;14326;50.794;6.060;2022-08-19T13:31:52;11.13;;;3.13;;
26718;SDS011;14326;50.794;6.060;2022-08-19T13:34:36;7.93;;;2.97;;
26718;SDS011;14326;50.794;6.060;2022-08-19T13:37:04;7.80;;;2.40;;
26718;SDS011;14326;50.794;6.060;2022-08-19T13:39:31;6.72;;;2.38;;
26718;SDS011;14326;50.794;6.060;2022-08-19T13:41:59;7.30;;;2.20;;
26718;SDS011;14326;50.794;6.060;2022-08-19T13:44:29;6.10;;;2.50;;
26718;SDS011;14326;50.794;6.060;2022-08-19T13:47:00;9.27;;;2.35;;
26718;SDS011;14326;50.794;6.060;2022-08-19T13:49:31;8.23;;;2.67;;
26718;SDS011;14326;50.794;6.060;2022-08-19T13:52:00;10.32;;;2.53;;
26718;SDS011;14326;50.794;6.060;2022-08-19T13:54:26;7.78;;;2.50;;
26718;SDS011;14326;50.794;6.060;2022-08-19T13:56:53;7.22;;;2.72;;
26718;SDS011;14326;50.794;6.060;2022-08-19T13:59:19;10.70;;;2.97;;
26718;SDS011;14326;50.794;6.060;2022-08-19T14:01:46;8.77;;;3.03;;
26718;SDS011;14326;50.794;6.060;2022-08-19T14:04:14;7.78;;;3.20;;
26718;SDS011;14326;50.794;6.060;2022-08-19T14:06:41;8.63;;;3.00;;
26718;SDS011;14326;50.794;6.060;2022-08-19T14:09:07;8.77;;;2.90;;
26718;SDS011;14326;50.794;6.060;2022-08-19T14:11:34;10.50;;;2.83;;
26718;SDS011;14326;50.794;6.060;2022-08-19T14:14:00;11.05;;;3.20;;
26718;SDS011;14326;50.794;6.060;2022-08-19T14:16:27;8.75;;;3.03;;
26718;SDS011;14326;50.794;6.060;2022-08-19T14:18:55;11.20;;;2.80;;
26718;SDS011;14326;50.794;6.060;2022-08-19T14:21:24;9.38;;;3.15;;
26718;SDS011;14326;50.794;6.060;2022-08-19T14:23:51;7.05;;;3.05;;
26718;SDS011;14326;50.794;6.060;2022-08-19T14:26:18;7.68;;;3.25;;
26718;SDS011;14326;50.794;6.060;2022-08-19T14:28:47;9.27;;;3.42;;
26718;SDS011;14326;50.794;6.060;2022-08-19T14:31:15;7.75;;;3.50;;
26718;SDS011;14326;50.794;6.060;2022-08-19T14:33:44;12.43;;;4.15;;
26718;SDS011;14326;50.794;6.060;2022-08-19T14:36:11;13.32;;;4.00;;